Impacts TAF Board INFO
FOR SITUATIONAL AWARENESS. NOT TO BE USED FOR FLIGHT PLANNING PURPOSES.
IDs:

KLAS - Las Vegas/McCarran I, NV, US

Issued at 2036 UTC 16 Oct 2017
Updated at 2153 UTC 16 Oct 2017
Potential Impact None Slight Moderate High
Time2056Z 16/22Z 16/23Z 17/00Z 17/01Z 17/02Z 17/03Z 17/04Z 17/05Z 17/06Z 17/07Z 17/08Z 17/09Z 17/10Z>>
Type OBS PRVL PRVL PRVL PRVL PRVL PRVL PRVL PRVL PRVL PRVL PRVL PRVL PRVL
VIS 10 >6 >6 >6 >6 >6 >6 >6 >6 >6 >6 >6 >6 >6
CIG -- -- -- -- -- -- -- -- -- -- -- -- -- --
Cover SCT SCT SCT SCT SCT SCT SCT SCT SCT SCT SCT SCT SCT SCT
FltCat VFR VFR VFR VFR VFR VFR VFR VFR VFR VFR VFR VFR VFR VFR
WX -- -- -- -- -- -- -- -- -- -- -- -- -- --
WDir VRB 60 60 60 60 220 220 220 220 220 220 220 220 220
WSpd 3 5 5 5 5 7 7 7 7 7 7 7 7 7
WGst -- -- -- -- -- -- -- -- -- -- -- -- -- --

Raw TAF
KLAS 162036Z 1621/1724 06005KT P6SM SCT250
  FM170200 22007KT P6SM SCT250
  FM171600 VRB05KT P6SM SCT250
  FM172000 07006KT P6SM BKN250


Raw METAR
KLAS 162056Z VRB03KT 10SM SCT250 27/M12 A3018 RMK AO2 SLP205 T02721122 58027
KLAS 161956Z 02003KT 10SM SCT250 26/M12 A3021 RMK AO2 SLP216 T02611122
KLAS 161856Z VRB04KT 10SM SCT250 24/M10 A3025 RMK AO2 SLP229 T02441100

METAR Board
Radar Display
Forecast Discussion

FOR SITUATIONAL AWARENESS. NOT TO BE USED FOR FLIGHT PLANNING PURPOSES.